createdAt,value
2018-09-19T00:02:09.029Z,4.90
2018-09-19T00:04:39.118Z,4.40
2018-09-19T00:07:11.952Z,4.73
2018-09-19T00:09:42.459Z,4.27
2018-09-19T00:12:13.860Z,4.43
2018-09-19T00:14:45.388Z,4.17
2018-09-19T00:17:16.034Z,4.47
2018-09-19T00:19:46.311Z,4.60
2018-09-19T00:22:17.591Z,4.60
2018-09-19T00:24:47.832Z,3.90
2018-09-19T00:27:19.804Z,4.33
2018-09-19T00:29:50.181Z,4.50
2018-09-19T00:32:20.298Z,4.83
2018-09-19T00:34:50.280Z,4.30
2018-09-19T00:37:20.864Z,4.23
2018-09-19T00:39:50.780Z,4.23
2018-09-19T00:42:22.316Z,4.47
2018-09-19T00:44:53.249Z,4.93
2018-09-19T00:47:23.325Z,4.43
2018-09-19T00:49:54.129Z,4.30
2018-09-19T00:52:24.543Z,4.47
2018-09-19T00:54:55.490Z,4.70
2018-09-19T00:57:26.400Z,4.43
2018-09-19T00:59:56.719Z,4.50
2018-09-19T01:02:27.561Z,4.23
2018-09-19T01:04:58.067Z,4.70
2018-09-19T01:07:28.569Z,4.70
2018-09-19T01:09:59.113Z,4.57
2018-09-19T01:12:28.965Z,5.33
2018-09-19T01:14:59.478Z,4.80
2018-09-19T01:17:31.338Z,4.40
2018-09-19T01:20:01.308Z,4.47
2018-09-19T01:22:31.564Z,4.60
2018-09-19T01:25:01.490Z,4.53
2018-09-19T01:27:31.457Z,4.80
2018-09-19T01:30:02.078Z,4.20
2018-09-19T01:32:32.744Z,4.60
2018-09-19T01:35:06.717Z,4.33
2018-09-19T01:37:37.259Z,4.60
2018-09-19T01:40:07.838Z,4.43
2018-09-19T01:42:38.398Z,4.47
2018-09-19T01:45:08.620Z,4.53
2018-09-19T01:47:38.921Z,4.53
2018-09-19T01:50:09.518Z,4.60
2018-09-19T01:52:40.280Z,4.10
2018-09-19T01:55:10.632Z,4.00
2018-09-19T01:57:40.815Z,4.33
2018-09-19T02:00:11.125Z,4.37
2018-09-19T02:02:41.138Z,4.43
2018-09-19T02:05:11.091Z,4.30
2018-09-19T02:07:42.760Z,4.43
2018-09-19T02:10:14.749Z,4.27
2018-09-19T02:12:44.867Z,5.13
2018-09-19T02:15:15.542Z,4.60
2018-09-19T02:17:45.539Z,4.10
2018-09-19T02:20:16.020Z,4.60
2018-09-19T02:22:46.212Z,4.50
2018-09-19T02:25:16.287Z,4.33
2018-09-19T02:27:46.874Z,4.43
2018-09-19T02:30:17.463Z,5.23
2018-09-19T02:32:47.870Z,5.63
2018-09-19T02:35:17.703Z,4.60
2018-09-19T02:37:48.067Z,4.53
2018-09-19T02:40:18.321Z,5.00
2018-09-19T02:42:48.553Z,4.77
2018-09-19T02:45:19.172Z,4.37
2018-09-19T02:47:49.361Z,4.60
2018-09-19T02:50:19.873Z,4.70
2018-09-19T02:52:57.077Z,4.37
2018-09-19T02:55:27.620Z,4.33
2018-09-19T02:57:57.860Z,4.70
2018-09-19T03:00:27.816Z,3.67
2018-09-19T03:02:57.850Z,4.47
2018-09-19T03:05:28.014Z,3.93
2018-09-19T03:07:58.296Z,4.60
2018-09-19T03:10:28.889Z,4.50
2018-09-19T03:12:59.757Z,5.30
2018-09-19T03:15:30.368Z,4.40
2018-09-19T03:18:01.013Z,4.20
2018-09-19T03:20:32.803Z,4.53
2018-09-19T03:23:04.100Z,5.10
2018-09-19T03:25:34.315Z,4.90
2018-09-19T03:28:05.666Z,4.37
2018-09-19T03:30:37.129Z,3.90
2018-09-19T03:33:07.060Z,4.47
2018-09-19T03:35:37.662Z,4.30
2018-09-19T03:38:07.985Z,4.63
2018-09-19T03:40:38.537Z,5.10
2018-09-19T03:43:09.245Z,4.50
2018-09-19T03:45:39.530Z,4.77
2018-09-19T03:48:10.232Z,4.70
2018-09-19T03:50:40.838Z,4.67
2018-09-19T03:53:10.852Z,4.90
2018-09-19T03:55:41.066Z,5.47
2018-09-19T03:58:11.488Z,4.27
2018-09-19T04:00:41.581Z,4.70
2018-09-19T04:03:11.835Z,4.20
2018-09-19T04:05:41.887Z,5.00
2018-09-19T04:08:12.237Z,4.87
2018-09-19T04:10:42.100Z,4.90
2018-09-19T04:13:12.185Z,4.70
2018-09-19T04:15:42.363Z,4.97
2018-09-19T04:18:12.865Z,4.20
2018-09-19T04:20:43.137Z,4.17
2018-09-19T04:23:13.220Z,4.10
2018-09-19T04:25:43.722Z,4.50
2018-09-19T04:28:13.887Z,5.63
2018-09-19T04:30:44.438Z,4.93
2018-09-19T04:33:15.581Z,5.30
2018-09-19T04:35:45.562Z,5.40
2018-09-19T04:38:16.286Z,5.50
2018-09-19T04:40:46.886Z,5.10
2018-09-19T04:43:16.820Z,4.67
2018-09-19T04:45:47.273Z,5.30
2018-09-19T04:48:17.979Z,5.00
2018-09-19T04:50:48.063Z,5.60
2018-09-19T04:53:18.973Z,5.90
2018-09-19T04:55:48.741Z,5.03
2018-09-19T04:58:18.973Z,5.10
2018-09-19T05:00:49.345Z,5.70
2018-09-19T05:03:19.357Z,5.77
2018-09-19T05:05:49.550Z,6.20
2018-09-19T05:08:19.938Z,6.30
2018-09-19T05:10:50.518Z,5.50
2018-09-19T05:13:23.002Z,6.33
2018-09-19T05:15:52.924Z,5.27
2018-09-19T05:18:23.253Z,5.27
2018-09-19T05:20:54.039Z,6.13
2018-09-19T05:23:24.332Z,5.37
2018-09-19T05:25:56.282Z,5.47
2018-09-19T05:28:26.635Z,5.43
2018-09-19T05:30:56.772Z,6.33
2018-09-19T05:33:27.459Z,5.47
2018-09-19T05:35:58.025Z,6.63
2018-09-19T05:38:28.411Z,6.70
2018-09-19T05:40:58.753Z,6.30
2018-09-19T05:43:29.680Z,6.07
2018-09-19T05:45:59.877Z,6.70
2018-09-19T05:48:30.914Z,6.10
2018-09-19T05:51:03.857Z,6.17
2018-09-19T05:53:34.408Z,5.87
2018-09-19T05:56:04.750Z,6.50
2018-09-19T05:58:34.955Z,6.20
2018-09-19T06:01:04.916Z,6.10
2018-09-19T06:03:35.432Z,5.60
2018-09-19T06:06:07.198Z,5.93
2018-09-19T06:08:37.809Z,5.27
2018-09-19T06:11:09.824Z,5.53
2018-09-19T06:13:41.942Z,5.97
2018-09-19T06:16:12.900Z,5.90
2018-09-19T06:18:44.369Z,6.30
2018-09-19T06:21:16.162Z,6.00
2018-09-19T06:23:48.922Z,5.30
2018-09-19T06:26:18.760Z,6.10
2018-09-19T06:28:49.262Z,6.30
2018-09-19T06:31:19.380Z,5.50
2018-09-19T06:33:49.398Z,6.37
2018-09-19T06:36:19.903Z,5.40
2018-09-19T06:38:49.958Z,5.33
2018-09-19T06:41:19.969Z,5.73
2018-09-19T06:43:50.175Z,6.00
2018-09-19T06:46:19.942Z,6.13
2018-09-19T06:48:50.595Z,5.60
2018-09-19T06:51:21.050Z,6.00
2018-09-19T06:53:51.502Z,6.40
2018-09-19T06:56:21.618Z,5.47
2018-09-19T06:58:51.836Z,5.53
2018-09-19T07:01:21.845Z,5.67
2018-09-19T07:03:52.494Z,5.57
2018-09-19T07:06:23.332Z,5.50
2018-09-19T07:08:53.602Z,6.00
2018-09-19T07:11:24.236Z,5.30
2018-09-19T07:13:54.406Z,4.90
2018-09-19T07:16:24.883Z,5.63
2018-09-19T07:18:55.237Z,5.23
2018-09-19T07:21:26.122Z,5.37
2018-09-19T07:23:56.079Z,5.50
2018-09-19T07:26:28.671Z,6.20
2018-09-19T07:28:59.983Z,5.10
2018-09-19T07:31:33.185Z,5.30
2018-09-19T07:34:05.479Z,4.80
2018-09-19T07:36:37.802Z,4.80
2018-09-19T07:39:10.982Z,5.10
2018-09-19T07:41:41.004Z,4.60
2018-09-19T07:44:20.888Z,5.00
2018-09-19T07:46:51.397Z,4.90
2018-09-19T07:49:28.925Z,4.50
2018-09-19T07:51:59.519Z,4.33
2018-09-19T07:54:30.545Z,4.70
2018-09-19T07:57:04.122Z,5.00
2018-09-19T07:59:39.088Z,4.60
2018-09-19T08:02:10.390Z,4.77
2018-09-19T08:04:42.950Z,4.40
2018-09-19T08:07:15.582Z,4.30
2018-09-19T08:09:48.080Z,4.33
2018-09-19T08:12:20.500Z,4.00
2018-09-19T08:14:50.574Z,4.30
2018-09-19T08:17:20.706Z,4.13
2018-09-19T08:19:54.556Z,3.93
2018-09-19T08:22:26.276Z,3.93
2018-09-19T08:24:56.485Z,4.10
2018-09-19T08:27:27.344Z,3.90
2018-09-19T08:30:02.120Z,4.23
2018-09-19T08:32:34.631Z,4.13
2018-09-19T08:35:05.810Z,4.50
2018-09-19T08:38:06.569Z,3.90
2018-09-19T08:40:36.797Z,3.70
2018-09-19T08:43:06.835Z,3.70
2018-09-19T08:45:36.724Z,3.83
2018-09-19T08:48:06.882Z,3.20
2018-09-19T08:50:38.543Z,4.10
2018-09-19T08:53:08.584Z,3.47
2018-09-19T08:55:40.625Z,3.80
2018-09-19T08:58:15.469Z,3.47
2018-09-19T09:00:46.543Z,3.70
2018-09-19T09:03:19.020Z,3.33
2018-09-19T09:05:51.178Z,3.23
2018-09-19T09:08:22.179Z,3.23
2018-09-19T09:11:00.631Z,3.57
2018-09-19T09:13:37.131Z,3.27
2018-09-19T09:16:07.148Z,4.00
2018-09-19T09:18:44.634Z,3.40
2018-09-19T09:21:26.762Z,3.27
2018-09-19T09:24:14.890Z,3.10
2018-09-19T09:26:50.595Z,4.23
2018-09-19T09:29:21.884Z,3.83
2018-09-19T09:31:52.043Z,3.90
2018-09-19T09:34:22.520Z,4.17
2018-09-19T09:36:54.422Z,3.77
2018-09-19T09:39:26.694Z,4.40
2018-09-19T09:41:57.443Z,3.67
2018-09-19T09:44:28.426Z,4.40
2018-09-19T09:47:03.835Z,4.93
2018-09-19T09:49:36.751Z,4.30
2018-09-19T09:52:10.818Z,3.70
2018-09-19T09:54:43.002Z,3.70
2018-09-19T09:57:17.701Z,3.73
2018-09-19T10:00:05.097Z,3.60
2018-09-19T10:02:48.268Z,4.00
2018-09-19T10:05:22.026Z,3.53
2018-09-19T10:07:54.544Z,4.10
2018-09-19T10:10:25.834Z,3.80
2018-09-19T10:12:57.250Z,4.00
2018-09-19T10:15:28.880Z,3.47
2018-09-19T10:18:02.794Z,3.37
2018-09-19T10:20:36.306Z,3.60
2018-09-19T10:23:10.025Z,3.77
2018-09-19T10:25:47.629Z,3.70
2018-09-19T10:28:21.248Z,2.97
2018-09-19T10:30:51.908Z,3.40
2018-09-19T10:33:22.857Z,3.10
2018-09-19T10:35:55.892Z,2.93
2018-09-19T10:38:30.603Z,3.00
2018-09-19T10:41:10.768Z,3.20
2018-09-19T10:43:44.873Z,2.80
2018-09-19T10:46:15.760Z,2.60
2018-09-19T10:48:49.567Z,2.60
2018-09-19T10:51:22.129Z,2.70
2018-09-19T10:53:56.854Z,2.47
2018-09-19T10:56:30.099Z,2.90
2018-09-19T10:59:04.117Z,3.30
2018-09-19T11:01:39.823Z,2.80
2018-09-19T11:04:11.734Z,2.80
2018-09-19T11:06:44.711Z,2.60
2018-09-19T11:09:20.324Z,2.80
2018-09-19T11:11:54.489Z,2.50
2018-09-19T11:14:26.739Z,2.33
2018-09-19T11:17:00.071Z,3.03
2018-09-19T11:19:34.659Z,2.97
2018-09-19T11:22:06.799Z,3.43
2018-09-19T11:24:42.876Z,3.13
2018-09-19T11:27:19.079Z,3.20
2018-09-19T11:29:55.048Z,4.10
2018-09-19T11:32:30.612Z,2.87
2018-09-19T11:35:02.676Z,3.13
2018-09-19T11:37:37.001Z,3.10
2018-09-19T11:40:10.505Z,3.10
2018-09-19T11:42:46.054Z,3.07
2018-09-19T11:45:27.340Z,3.33
2018-09-19T11:48:00.152Z,2.60
2018-09-19T11:50:33.669Z,3.30
2018-09-19T11:53:05.608Z,3.00
2018-09-19T11:55:35.516Z,4.00
2018-09-19T11:58:05.663Z,3.00
2018-09-19T12:00:36.301Z,3.10
2018-09-19T12:03:11.000Z,3.23
2018-09-19T12:05:44.372Z,2.97
2018-09-19T12:08:17.234Z,3.23
2018-09-19T12:10:50.261Z,3.30
2018-09-19T12:13:22.247Z,3.47
2018-09-19T12:15:54.626Z,3.23
2018-09-19T12:18:25.615Z,3.40
2018-09-19T12:20:58.240Z,3.20
2018-09-19T12:23:29.616Z,2.73
2018-09-19T12:26:00.032Z,3.03
2018-09-19T12:28:29.992Z,2.67
2018-09-19T12:30:59.914Z,2.80
2018-09-19T12:33:30.550Z,3.40
2018-09-19T12:36:00.703Z,3.60
2018-09-19T12:38:31.142Z,3.13
2018-09-19T12:41:01.331Z,2.90
2018-09-19T12:43:31.339Z,2.97
2018-09-19T12:46:02.077Z,3.57
2018-09-19T12:48:35.108Z,3.47
2018-09-19T12:51:07.363Z,3.70
2018-09-19T12:53:42.287Z,2.93
2018-09-19T12:56:13.696Z,2.77
2018-09-19T12:58:44.365Z,3.00
2018-09-19T13:01:17.193Z,3.00
2018-09-19T13:03:49.395Z,3.50
2018-09-19T13:06:20.884Z,2.80
2018-09-19T13:08:51.965Z,2.97
2018-09-19T13:11:24.648Z,3.67
2018-09-19T13:13:56.076Z,3.40
2018-09-19T13:16:27.192Z,3.67
2018-09-19T13:18:58.683Z,3.30
2018-09-19T13:21:29.131Z,2.63
2018-09-19T13:24:02.852Z,3.13
2018-09-19T13:26:34.624Z,2.47
2018-09-19T13:29:05.662Z,3.40
2018-09-19T13:31:36.921Z,3.60
2018-09-19T13:34:07.556Z,2.70
2018-09-19T13:36:41.783Z,3.10
2018-09-19T13:39:13.851Z,3.10
2018-09-19T13:41:43.799Z,2.60
2018-09-19T13:44:14.615Z,2.60
2018-09-19T13:46:45.284Z,2.80
2018-09-19T13:49:50.788Z,2.53
2018-09-19T13:52:23.431Z,3.00
2018-09-19T13:54:53.945Z,2.40
2018-09-19T13:57:23.887Z,3.00
2018-09-19T13:59:56.717Z,3.17
2018-09-19T14:02:33.848Z,3.77
2018-09-19T14:05:06.301Z,2.70
2018-09-19T14:07:40.476Z,2.70
2018-09-19T14:10:18.829Z,2.83
2018-09-19T14:12:51.367Z,2.60
2018-09-19T14:15:28.451Z,3.03
2018-09-19T14:18:00.447Z,2.90
2018-09-19T14:20:35.065Z,2.37
2018-09-19T14:23:07.696Z,2.90
2018-09-19T14:25:42.196Z,2.60
2018-09-19T14:28:15.703Z,2.13
2018-09-19T14:30:46.130Z,2.67
2018-09-19T14:33:16.529Z,2.70
2018-09-19T14:35:47.339Z,2.70
2018-09-19T14:38:19.168Z,2.37
2018-09-19T14:40:50.211Z,3.60
2018-09-19T14:43:20.728Z,2.43
2018-09-19T14:45:51.067Z,3.00
2018-09-19T14:48:23.190Z,2.90
2018-09-19T14:50:54.161Z,3.77
2018-09-19T14:53:30.267Z,3.10
2018-09-19T14:56:03.940Z,2.53
2018-09-19T14:58:35.761Z,2.60
2018-09-19T15:01:09.903Z,2.80
2018-09-19T15:03:41.898Z,3.80
2018-09-19T15:06:13.129Z,2.70
2018-09-19T15:08:45.841Z,3.43
2018-09-19T15:11:16.507Z,3.20
2018-09-19T15:13:47.287Z,2.50
2018-09-19T15:16:20.936Z,3.17
2018-09-19T15:18:54.625Z,2.13
2018-09-19T15:21:31.195Z,2.50
2018-09-19T15:24:07.208Z,2.10
2018-09-19T15:26:44.771Z,2.70
2018-09-19T15:29:18.607Z,2.50
2018-09-19T15:31:51.218Z,2.57
2018-09-19T15:34:24.430Z,2.63
2018-09-19T15:36:58.674Z,2.20
2018-09-19T15:39:31.011Z,2.67
2018-09-19T15:42:05.164Z,2.70
2018-09-19T15:44:43.069Z,2.80
2018-09-19T15:47:15.758Z,2.63
2018-09-19T15:49:46.715Z,2.63
2018-09-19T15:52:23.675Z,2.73
2018-09-19T15:54:55.044Z,2.40
2018-09-19T15:57:26.023Z,3.00
2018-09-19T15:59:58.212Z,2.33
2018-09-19T16:02:29.171Z,2.10
2018-09-19T16:05:01.349Z,5.90
2018-09-19T16:07:34.123Z,4.10
2018-09-19T16:10:10.872Z,3.13
2018-09-19T16:12:42.785Z,2.80
2018-09-19T16:15:14.525Z,3.00
2018-09-19T16:17:45.346Z,3.00
2018-09-19T16:20:18.598Z,2.40
2018-09-19T16:22:50.157Z,3.03
2018-09-19T16:25:23.473Z,2.90
2018-09-19T16:28:01.182Z,3.20
2018-09-19T16:30:31.449Z,3.43
2018-09-19T16:33:01.614Z,2.87
2018-09-19T16:35:33.565Z,2.90
2018-09-19T16:38:06.739Z,2.40
2018-09-19T16:40:42.269Z,3.23
2018-09-19T16:43:15.654Z,3.00
2018-09-19T16:45:53.997Z,3.33
2018-09-19T16:48:25.623Z,3.17
2018-09-19T16:51:05.863Z,3.03
2018-09-19T16:53:37.038Z,3.20
2018-09-19T16:56:12.527Z,3.13
2018-09-19T16:58:44.475Z,3.67
2018-09-19T17:01:19.187Z,3.43
2018-09-19T17:03:50.194Z,3.60
2018-09-19T17:06:21.402Z,2.80
2018-09-19T17:08:53.369Z,3.20
2018-09-19T17:11:23.741Z,2.80
2018-09-19T17:13:57.346Z,3.43
2018-09-19T17:16:31.411Z,2.83
2018-09-19T17:19:06.784Z,2.70
2018-09-19T17:21:42.813Z,3.17
2018-09-19T17:24:15.095Z,2.73
2018-09-19T17:26:46.407Z,2.60
2018-09-19T17:29:21.989Z,2.93
2018-09-19T17:31:54.116Z,3.37
2018-09-19T17:34:25.252Z,3.07
2018-09-19T17:36:56.049Z,3.20
2018-09-19T17:39:29.150Z,3.20
2018-09-19T17:42:00.519Z,3.20
2018-09-19T17:44:30.926Z,3.10
2018-09-19T17:47:02.347Z,2.67
2018-09-19T17:49:34.348Z,3.20
2018-09-19T17:52:05.350Z,2.90
2018-09-19T17:54:41.299Z,2.70
2018-09-19T17:57:13.331Z,3.10
2018-09-19T17:59:44.437Z,2.60
2018-09-19T18:02:15.491Z,2.80
2018-09-19T18:04:46.524Z,3.37
2018-09-19T18:07:17.954Z,2.93
2018-09-19T18:09:48.427Z,3.40
2018-09-19T18:12:18.491Z,3.33
2018-09-19T18:14:50.192Z,3.57
2018-09-19T18:17:21.038Z,3.83
2018-09-19T18:19:50.924Z,2.93
2018-09-19T18:22:21.794Z,3.93
2018-09-19T18:24:52.254Z,4.10
2018-09-19T18:27:23.074Z,3.30
2018-09-19T18:29:53.026Z,4.27
2018-09-19T18:32:23.106Z,3.23
2018-09-19T18:34:53.381Z,3.50
2018-09-19T18:37:24.182Z,3.40
2018-09-19T18:39:54.319Z,4.23
2018-09-19T18:42:25.075Z,3.90
2018-09-19T18:44:56.510Z,4.20
2018-09-19T18:47:28.170Z,4.27
2018-09-19T18:49:59.202Z,4.67
2018-09-19T18:52:29.901Z,4.50
2018-09-19T18:55:02.975Z,4.97
2018-09-19T18:57:35.988Z,4.30
2018-09-19T19:00:11.553Z,4.60
2018-09-19T19:02:51.283Z,5.13
2018-09-19T19:05:23.078Z,4.30
2018-09-19T19:08:03.668Z,4.50
2018-09-19T19:10:34.252Z,4.30
2018-09-19T19:13:07.105Z,4.90
2018-09-19T19:15:37.998Z,3.97
2018-09-19T19:18:12.732Z,4.10
2018-09-19T19:20:44.778Z,4.30
2018-09-19T19:23:17.085Z,4.03
2018-09-19T19:25:50.156Z,4.20
2018-09-19T19:28:23.236Z,4.23
2018-09-19T19:30:55.186Z,4.30
2018-09-19T19:33:28.530Z,3.80
2018-09-19T19:36:01.785Z,4.50
2018-09-19T19:38:32.132Z,3.73
2018-09-19T19:41:07.515Z,3.43
2018-09-19T19:45:03.761Z,3.73
2018-09-19T19:47:35.452Z,3.73
2018-09-19T19:50:07.736Z,3.80
2018-09-19T19:52:38.691Z,3.77
2018-09-19T19:55:09.006Z,3.33
2018-09-19T19:57:39.402Z,3.13
2018-09-19T20:00:11.285Z,4.53
2018-09-19T20:02:42.103Z,3.70
2018-09-19T20:05:12.450Z,3.43
2018-09-19T20:07:42.508Z,3.70
2018-09-19T20:10:15.561Z,3.47
2018-09-19T20:12:46.067Z,3.27
2018-09-19T20:15:17.135Z,3.07
2018-09-19T20:17:47.807Z,4.03
2018-09-19T20:20:18.708Z,3.50
2018-09-19T20:22:50.346Z,3.87
2018-09-19T20:25:20.850Z,3.10
2018-09-19T20:27:51.506Z,3.70
2018-09-19T20:30:21.532Z,3.20
2018-09-19T20:32:54.340Z,4.20
2018-09-19T20:35:24.941Z,3.37
2018-09-19T20:37:55.474Z,3.20
2018-09-19T20:40:25.560Z,3.73
2018-09-19T20:42:58.652Z,3.60
2018-09-19T20:45:28.886Z,3.40
2018-09-19T20:47:59.590Z,3.40
2018-09-19T20:50:31.370Z,3.70
2018-09-19T20:53:03.716Z,4.30
2018-09-19T20:55:35.013Z,3.60
2018-09-19T20:58:05.138Z,3.70
2018-09-19T21:00:35.643Z,3.37
2018-09-19T21:03:06.902Z,3.93
2018-09-19T21:05:36.918Z,3.80
2018-09-19T21:08:06.773Z,4.10
2018-09-19T21:10:36.746Z,4.10
2018-09-19T21:13:07.386Z,3.63
2018-09-19T21:15:37.574Z,3.73
2018-09-19T21:18:08.017Z,3.60
2018-09-19T21:20:37.818Z,4.20
2018-09-19T21:23:07.880Z,3.63
2018-09-19T21:25:37.833Z,4.17
2018-09-19T21:28:08.066Z,4.00
2018-09-19T21:30:38.140Z,3.73
2018-09-19T21:33:08.505Z,4.43
2018-09-19T21:35:38.318Z,4.60
2018-09-19T21:38:08.614Z,3.97
2018-09-19T21:40:38.720Z,4.40
2018-09-19T21:43:09.245Z,4.07
2018-09-19T21:45:40.028Z,4.47
2018-09-19T21:48:10.338Z,4.13
2018-09-19T21:50:40.294Z,4.20
2018-09-19T21:53:10.697Z,4.10
2018-09-19T21:55:41.742Z,3.73
2018-09-19T21:58:12.479Z,4.00
2018-09-19T22:00:50.212Z,4.10
2018-09-19T22:03:21.474Z,3.50
2018-09-19T22:05:52.113Z,3.97
2018-09-19T22:08:22.768Z,3.40
2018-09-19T22:10:52.991Z,4.20
2018-09-19T22:13:24.058Z,4.00
2018-09-19T22:15:54.062Z,3.70
2018-09-19T22:18:24.806Z,4.33
2018-09-19T22:20:56.025Z,4.00
2018-09-19T22:23:26.357Z,4.63
2018-09-19T22:25:57.023Z,4.10
2018-09-19T22:28:27.079Z,3.87
2018-09-19T22:30:58.006Z,3.67
2018-09-19T22:33:29.315Z,4.00
2018-09-19T22:35:59.851Z,3.97
2018-09-19T22:38:33.270Z,3.90
2018-09-19T22:41:03.466Z,4.00
2018-09-19T22:43:33.273Z,3.47
2018-09-19T22:46:04.347Z,3.60
2018-09-19T22:48:34.605Z,4.13
2018-09-19T22:51:04.528Z,3.93
2018-09-19T22:53:35.891Z,4.10
2018-09-19T22:56:06.411Z,4.00
2018-09-19T22:58:36.771Z,4.30
2018-09-19T23:01:07.354Z,3.70
2018-09-19T23:03:37.876Z,4.00
2018-09-19T23:06:07.821Z,3.30
2018-09-19T23:08:40.413Z,3.53
2018-09-19T23:11:10.918Z,3.20
2018-09-19T23:13:40.885Z,3.83
2018-09-19T23:16:11.015Z,3.83
2018-09-19T23:18:40.981Z,3.30
2018-09-19T23:21:11.268Z,3.83
2018-09-19T23:23:41.463Z,3.43
2018-09-19T23:26:11.308Z,3.57
2018-09-19T23:28:41.539Z,3.47
2018-09-19T23:31:12.764Z,3.40
2018-09-19T23:33:42.699Z,3.30
2018-09-19T23:36:12.856Z,3.07
2018-09-19T23:38:43.421Z,3.17
2018-09-19T23:41:14.308Z,3.20
2018-09-19T23:43:44.229Z,3.30
2018-09-19T23:46:15.853Z,3.83
2018-09-19T23:48:46.321Z,3.10
2018-09-19T23:51:16.992Z,3.80
2018-09-19T23:53:48.479Z,3.43
2018-09-19T23:56:20.856Z,3.50
2018-09-19T23:58:51.141Z,2.97
